Tropical Cyclones
[Index]
Main Index Home Page Stock Weather Photos Extreme Storms Discussion Storm News and Storm Chasing Reports Tropical Cyclones / Hurricanes / Typhoons Weather Data and Links Wild Fires / Bushfires Weather Observation Techniques Weather Picture Catalogue Tornado Pictures and Reports Stock Video Footage and DVDs for sale
Season 1991-1992 Tropical Cyclone TIA Track Map
Season 1991-1992 Summaries: [BoM-AU] [JTWC-AU] [JTWC-SIO] [JTWC-SPAC] [JTWC-SH]
<<- Previous TC | JTWC 1991-1992 Season | Next TC ->>

click for intensity scale information  Lat/long Grid: Show Hide

 Date Labels: Show Hide

Joint Typhoon Warning Centre Cyclone Data

Name: TIA

12 Nov 1991 18:00 UTC to 21 Nov 1991 18:00 UTC

    date/time    lat    long     hPa   cat  kts
1991-11-12 18    7.1   163.6                  20          
1991-11-13 00    7.5   163.1                  25          
1991-11-13 06    8.0   162.7                  25          
1991-11-13 12    8.5   162.5                  25          
1991-11-13 18    8.6   163.1                  25          
1991-11-14 00    8.6   163.8                  25          
1991-11-14 06    8.7   164.5                  25          
1991-11-14 12    8.7   165.3                  30          
1991-11-14 18    8.6   166.2                  35          
1991-11-15 00    8.6   167.1            1     40          
1991-11-15 06    8.5   168.0            1     45          
1991-11-15 12    8.4   168.8            1     50          
1991-11-15 18    8.5   169.5            2     55          
1991-11-16 00    8.6   170.1            2     60          
1991-11-16 06    8.7   170.6            2     65          
1991-11-16 12    8.9   171.0            2     70          
1991-11-16 18    9.2   170.9            3     75          
1991-11-17 00    9.4   170.6            3     80          
1991-11-17 06    9.8   170.2            3     85          
1991-11-17 12   10.4   169.5            3     85          
1991-11-17 18   11.6   169.2            3     90          
1991-11-18 00   12.7   169.1            3     90          
1991-11-18 06   13.4   169.0            3     95          
1991-11-18 12   14.1   169.0            3     95          
1991-11-18 18   15.0   169.1            3     90          
1991-11-19 00   15.8   169.4            3     80          
1991-11-19 06   16.4   170.0            2     70          
1991-11-19 12   16.8   170.5            2     60          
1991-11-19 18   17.3   171.1            2     55          
1991-11-20 00   17.7   171.7            1     50          
1991-11-20 06   16.5   171.4            1     40          
1991-11-20 12   16.0   170.7                  35          
1991-11-20 18   15.4   169.8                  35          
1991-11-21 00   14.7   169.0                  35          
1991-11-21 06   14.1   168.3                  30          
1991-11-21 12   13.6   167.5                  30          
1991-11-21 18   13.2   166.7                  25          
Winds are 1-min average.

Tropical cyclone tracks developed by Michael Bath using data from the Joint Typhoon Warning Centre Best Tracks and Google Maps.


[Australian Severe Weather index] [Copyright Notice] [Email Contacts] [Search This Site] [Privacy Policy]
Document: tropical_cyclone_tia.htm Updated: 18 September 2016